Skandia, Michigan
Current Conditions -  °F | °C
As of 6:45 AM on Friday 21 Nov 2014 (Local Time) from KSAW Reporting Station
Clear Clear  
Wind Chill:   Ceiling: Unl
Heat Index:   Visibility: 10mi
Dew Point: -2°   Wind: 0mph
Humidity: 85%   Direction: NA
Pressure: 30.21"   Gusts: NA
Location:  46.38°N, 87.24°W
Report Text: KSAW 211145Z 00000KT 10SM SKC M17/M19 A3021
Loading
Personal Weather Stations






























Interactive Weather Map New forecast layout! Learn more

10-Day Weather Forecast

Advertisements
Track Severe Weather on mobile